createdAt,value
2024-04-18T00:00:13.475Z,646.00
2024-04-18T00:01:13.278Z,647.00
2024-04-18T00:02:13.190Z,651.00
2024-04-18T00:03:13.263Z,647.00
2024-04-18T00:04:13.292Z,645.00
2024-04-18T00:05:13.250Z,640.00
2024-04-18T00:06:13.243Z,639.00
2024-04-18T00:07:13.204Z,636.00
2024-04-18T00:08:13.244Z,636.00
2024-04-18T00:09:13.232Z,638.00
2024-04-18T00:10:13.239Z,633.00
2024-04-18T00:11:13.245Z,632.00
2024-04-18T00:12:16.099Z,631.00
2024-04-18T00:13:13.215Z,630.00
2024-04-18T00:14:13.228Z,632.00
2024-04-18T00:15:13.303Z,632.00
2024-04-18T00:16:13.298Z,633.00
2024-04-18T00:17:13.254Z,633.00
2024-04-18T00:18:34.323Z,630.00
2024-04-18T00:19:13.224Z,631.00
2024-04-18T00:20:13.257Z,631.00
2024-04-18T00:21:49.079Z,633.00
2024-04-18T00:22:13.229Z,631.00
2024-04-18T00:23:13.232Z,633.00
2024-04-18T00:24:13.264Z,635.00
2024-04-18T00:25:13.261Z,639.00
2024-04-18T00:26:13.233Z,646.00
2024-04-18T00:27:13.253Z,644.00
2024-04-18T00:28:13.227Z,647.00
2024-04-18T00:29:13.235Z,641.00
2024-04-18T00:30:13.278Z,642.00
2024-04-18T00:31:13.243Z,643.00
2024-04-18T00:32:13.257Z,642.00
2024-04-18T00:33:13.297Z,640.00
2024-04-18T00:34:13.237Z,641.00
2024-04-18T00:35:13.260Z,642.00
2024-04-18T00:36:13.307Z,642.00
2024-04-18T00:37:13.244Z,640.00
2024-04-18T00:38:13.315Z,643.00
2024-04-18T00:39:13.247Z,643.00
2024-04-18T00:40:16.059Z,643.00
2024-04-18T00:41:13.251Z,643.00
2024-04-18T00:42:13.259Z,642.00
2024-04-18T00:43:34.262Z,645.00
2024-04-18T00:44:13.264Z,643.00
2024-04-18T00:45:13.296Z,644.00
2024-04-18T00:46:24.062Z,644.00
2024-04-18T00:47:13.277Z,643.00
2024-04-18T00:48:13.357Z,644.00
2024-04-18T00:49:13.322Z,647.00
2024-04-18T00:50:13.279Z,649.00
2024-04-18T00:51:13.313Z,654.00
2024-04-18T00:52:13.252Z,652.00
2024-04-18T00:53:13.249Z,652.00
2024-04-18T00:54:13.260Z,644.00
2024-04-18T00:55:13.263Z,649.00
2024-04-18T00:56:15.924Z,647.00
2024-04-18T00:57:13.263Z,647.00
2024-04-18T00:58:13.305Z,649.00
2024-04-18T00:59:13.258Z,647.00
2024-04-18T01:00:13.300Z,646.00
2024-04-18T01:01:13.352Z,647.00
2024-04-18T01:02:14.062Z,645.00
2024-04-18T01:03:13.381Z,642.00
2024-04-18T01:04:13.390Z,638.00
2024-04-18T01:05:16.106Z,642.00
2024-04-18T01:06:13.310Z,642.00
2024-04-18T01:07:13.270Z,642.00
2024-04-18T01:08:20.061Z,642.00
2024-04-18T01:09:13.301Z,639.00
2024-04-18T01:10:13.271Z,642.00
2024-04-18T01:11:39.624Z,642.00
2024-04-18T01:12:13.326Z,642.00
2024-04-18T01:13:13.284Z,643.00
2024-04-18T01:14:37.078Z,645.00
2024-04-18T01:15:13.353Z,642.00
2024-04-18T01:16:13.364Z,644.00
2024-04-18T01:17:16.182Z,645.00
2024-04-18T01:18:14.481Z,642.00
2024-04-18T01:19:13.326Z,645.00
2024-04-18T01:20:13.322Z,647.00
2024-04-18T01:21:13.346Z,650.00
2024-04-18T01:22:13.327Z,652.00
2024-04-18T01:23:13.337Z,655.00
2024-04-18T01:24:13.398Z,652.00
2024-04-18T01:25:13.333Z,645.00
2024-04-18T01:26:13.346Z,652.00
2024-04-18T01:27:13.352Z,648.00
2024-04-18T01:28:13.348Z,646.00
2024-04-18T01:29:13.323Z,648.00
2024-04-18T01:30:13.341Z,650.00
2024-04-18T01:31:13.326Z,648.00
2024-04-18T01:32:13.332Z,652.00
2024-04-18T01:33:14.180Z,652.00
2024-04-18T01:34:13.387Z,652.00
2024-04-18T01:35:13.332Z,653.00
2024-04-18T01:36:27.599Z,653.00
2024-04-18T01:37:13.340Z,653.00
2024-04-18T01:38:13.360Z,653.00
2024-04-18T01:39:34.420Z,655.00
2024-04-18T01:40:13.361Z,653.00
2024-04-18T01:41:13.355Z,654.00
2024-04-18T01:42:13.374Z,656.00
2024-04-18T01:43:13.351Z,658.00
2024-04-18T01:44:13.370Z,660.00
2024-04-18T01:45:13.371Z,662.00
2024-04-18T01:46:13.363Z,658.00
2024-04-18T01:47:13.393Z,653.00
2024-04-18T01:48:13.640Z,656.00
2024-04-18T01:49:13.423Z,657.00
2024-04-18T01:50:13.362Z,655.00
2024-04-18T01:51:13.397Z,656.00
2024-04-18T01:52:13.372Z,652.00
2024-04-18T01:53:13.365Z,654.00
2024-04-18T01:54:13.388Z,657.00
2024-04-18T01:55:13.371Z,658.00
2024-04-18T01:56:13.358Z,657.00
2024-04-18T01:57:13.365Z,660.00
2024-04-18T01:58:20.087Z,657.00
2024-04-18T01:59:13.365Z,657.00
2024-04-18T02:00:13.481Z,658.00
2024-04-18T02:01:31.623Z,660.00
2024-04-18T02:02:13.367Z,657.00
2024-04-18T02:03:13.559Z,658.00
2024-04-18T02:04:20.227Z,661.00
2024-04-18T02:05:13.389Z,657.00
2024-04-18T02:06:13.400Z,660.00
2024-04-18T02:07:41.087Z,663.00
2024-04-18T02:08:13.375Z,657.00
2024-04-18T02:09:13.382Z,660.00
2024-04-18T02:10:13.373Z,664.00
2024-04-18T02:11:13.466Z,682.00
2024-04-18T02:12:13.414Z,694.00
2024-04-18T02:13:13.384Z,702.00
2024-04-18T02:14:13.389Z,689.00
2024-04-18T02:15:13.411Z,690.00
2024-04-18T02:16:13.388Z,697.00
2024-04-18T02:17:13.401Z,690.00
2024-04-18T02:18:13.427Z,694.00
2024-04-18T02:19:13.391Z,692.00
2024-04-18T02:20:13.439Z,678.00
2024-04-18T02:21:13.421Z,691.00
2024-04-18T02:22:13.427Z,687.00
2024-04-18T02:23:13.398Z,686.00
2024-04-18T02:24:13.435Z,681.00
2024-04-18T02:25:13.399Z,688.00
2024-04-18T02:26:14.099Z,679.00
2024-04-18T02:27:13.429Z,674.00
2024-04-18T02:28:13.400Z,689.00
2024-04-18T02:29:34.434Z,675.00
2024-04-18T02:30:13.427Z,676.00
2024-04-18T02:31:13.421Z,678.00
2024-04-18T02:32:35.236Z,682.00
2024-04-18T02:33:13.589Z,676.00
2024-04-18T02:34:13.415Z,680.00
2024-04-18T02:35:13.419Z,686.00
2024-04-18T02:36:13.450Z,696.00
2024-04-18T02:37:13.418Z,701.00
2024-04-18T02:38:13.417Z,698.00
2024-04-18T02:39:13.455Z,695.00
2024-04-18T02:40:13.422Z,692.00
2024-04-18T02:41:13.422Z,683.00
2024-04-18T02:42:13.441Z,675.00
2024-04-18T02:43:13.425Z,672.00
2024-04-18T02:44:13.430Z,674.00
2024-04-18T02:45:13.439Z,672.00
2024-04-18T02:46:13.432Z,670.00
2024-04-18T02:47:14.146Z,664.00
2024-04-18T02:48:20.145Z,666.00
2024-04-18T02:49:13.449Z,666.00
2024-04-18T02:50:13.456Z,667.00
2024-04-18T02:51:15.142Z,667.00
2024-04-18T02:52:13.445Z,671.00
2024-04-18T02:53:13.447Z,676.00
2024-04-18T02:54:34.489Z,669.00
2024-04-18T02:55:13.448Z,669.00
2024-04-18T02:56:13.461Z,671.00
2024-04-18T02:57:41.124Z,674.00
2024-04-18T02:58:13.464Z,669.00
2024-04-18T02:59:13.459Z,673.00
2024-04-18T03:00:45.317Z,681.00
2024-04-18T03:01:13.514Z,670.00
2024-04-18T03:02:13.484Z,676.00
2024-04-18T03:03:13.509Z,682.00
2024-04-18T03:04:13.514Z,690.00
2024-04-18T03:05:13.469Z,698.00
2024-04-18T03:06:13.489Z,693.00
2024-04-18T03:07:13.474Z,684.00
2024-04-18T03:08:13.485Z,691.00
2024-04-18T03:09:13.593Z,671.00
2024-04-18T03:10:13.506Z,674.00
2024-04-18T03:11:13.499Z,670.00
2024-04-18T03:12:13.477Z,668.00
2024-04-18T03:13:13.482Z,668.00
2024-04-18T03:14:13.495Z,665.00
2024-04-18T03:15:13.521Z,668.00
2024-04-18T03:16:13.489Z,667.00
2024-04-18T03:17:13.517Z,667.00
2024-04-18T03:18:13.628Z,664.00
2024-04-18T03:19:13.563Z,665.00
2024-04-18T03:20:13.515Z,677.00
2024-04-18T03:21:13.524Z,668.00
2024-04-18T03:22:28.127Z,679.00
2024-04-18T03:23:13.746Z,680.00
2024-04-18T03:24:13.781Z,680.00
2024-04-18T03:25:34.779Z,681.00
2024-04-18T03:26:13.768Z,680.00
2024-04-18T03:27:13.798Z,685.00
2024-04-18T03:28:13.760Z,692.00
2024-04-18T03:29:13.768Z,707.00
2024-04-18T03:30:13.798Z,725.00
2024-04-18T03:31:13.778Z,716.00
2024-04-18T03:32:13.810Z,726.00
2024-04-18T03:33:13.830Z,728.00
2024-04-18T03:34:13.773Z,725.00
2024-04-18T03:35:13.776Z,730.00
2024-04-18T03:36:13.813Z,725.00
2024-04-18T03:37:13.781Z,727.00
2024-04-18T03:38:13.783Z,726.00
2024-04-18T03:39:13.854Z,730.00
2024-04-18T03:40:13.785Z,729.00
2024-04-18T03:41:19.146Z,726.00
2024-04-18T03:42:13.813Z,727.00
2024-04-18T03:43:13.792Z,728.00
2024-04-18T03:44:13.789Z,732.00
2024-04-18T03:45:13.815Z,732.00
2024-04-18T03:46:13.800Z,733.00
2024-04-18T03:47:32.202Z,733.00
2024-04-18T03:48:13.923Z,733.00
2024-04-18T03:49:13.848Z,736.00
2024-04-18T03:50:41.640Z,739.00
2024-04-18T03:51:13.890Z,733.00
2024-04-18T03:52:13.821Z,736.00
2024-04-18T03:53:49.653Z,745.00
2024-04-18T03:54:13.847Z,733.00
2024-04-18T03:55:13.864Z,739.00
2024-04-18T03:56:13.853Z,749.00
2024-04-18T03:57:13.866Z,759.00
2024-04-18T03:58:13.833Z,772.00
2024-04-18T03:59:13.832Z,771.00
2024-04-18T04:00:14.053Z,760.00
2024-04-18T04:01:13.990Z,752.00
2024-04-18T04:02:13.863Z,754.00
2024-04-18T04:03:13.868Z,750.00
2024-04-18T04:04:13.921Z,750.00
2024-04-18T04:05:13.858Z,748.00
2024-04-18T04:06:13.880Z,747.00
2024-04-18T04:07:13.843Z,740.00
2024-04-18T04:08:13.842Z,734.00
2024-04-18T04:09:13.875Z,731.00
2024-04-18T04:10:13.845Z,730.00
2024-04-18T04:11:13.877Z,735.00
2024-04-18T04:12:13.925Z,743.00
2024-04-18T04:13:13.852Z,735.00
2024-04-18T04:14:13.854Z,738.00
2024-04-18T04:15:34.882Z,740.00
2024-04-18T04:16:13.891Z,740.00
2024-04-18T04:17:13.875Z,742.00
2024-04-18T04:18:34.970Z,744.00
2024-04-18T04:19:13.948Z,741.00
2024-04-18T04:20:13.862Z,744.00
2024-04-18T04:21:13.882Z,751.00
2024-04-18T04:22:13.885Z,756.00
2024-04-18T04:23:13.875Z,756.00
2024-04-18T04:24:13.893Z,763.00
2024-04-18T04:25:13.868Z,764.00
2024-04-18T04:26:13.879Z,757.00
2024-04-18T04:27:13.902Z,762.00
2024-04-18T04:28:13.900Z,756.00
2024-04-18T04:29:13.872Z,753.00
2024-04-18T04:30:13.880Z,750.00
2024-04-18T04:31:13.873Z,753.00
2024-04-18T04:32:13.922Z,744.00
2024-04-18T04:33:13.881Z,737.00
2024-04-18T04:34:21.156Z,600.00
2024-04-18T04:35:21.156Z,600.00
2024-04-18T04:36:23.279Z,600.00
2024-04-18T04:37:21.275Z,600.00
2024-04-18T04:38:21.263Z,600.00
2024-04-18T04:39:21.281Z,600.00
2024-04-18T04:40:24.264Z,600.00
2024-04-18T04:41:21.266Z,600.00
2024-04-18T04:42:21.314Z,600.00
2024-04-18T04:43:21.285Z,600.00
2024-04-18T04:44:21.298Z,600.00
2024-04-18T04:45:21.280Z,600.00
2024-04-18T04:46:39.765Z,602.00
2024-04-18T04:47:21.270Z,602.00
2024-04-18T04:48:21.437Z,603.00
2024-04-18T04:49:42.351Z,604.00
2024-04-18T04:50:21.272Z,602.00
2024-04-18T04:51:21.282Z,604.00
2024-04-18T04:52:21.295Z,606.00
2024-04-18T04:53:21.277Z,609.00
2024-04-18T04:54:21.309Z,611.00
2024-04-18T04:55:21.284Z,615.00
2024-04-18T04:56:21.314Z,609.00
2024-04-18T04:57:21.311Z,614.00
2024-04-18T04:58:21.291Z,610.00
2024-04-18T04:59:21.293Z,616.00
2024-04-18T05:00:21.297Z,611.00
2024-04-18T05:01:21.327Z,610.00
2024-04-18T05:02:22.286Z,612.00
2024-04-18T05:03:21.358Z,611.00
2024-04-18T05:04:21.415Z,609.00
2024-04-18T05:05:36.256Z,607.00
2024-04-18T05:06:21.304Z,608.00
2024-04-18T05:07:21.327Z,608.00
2024-04-18T05:08:24.264Z,610.00
2024-04-18T05:09:21.359Z,608.00
2024-04-18T05:10:21.323Z,609.00
2024-04-18T05:11:32.286Z,610.00
2024-04-18T05:12:21.339Z,608.00
2024-04-18T05:13:21.316Z,609.00
2024-04-18T05:14:42.320Z,611.00
2024-04-18T05:15:21.323Z,608.00
2024-04-18T05:16:24.207Z,610.00
2024-04-18T05:17:21.333Z,608.00
2024-04-18T05:18:21.339Z,610.00
2024-04-18T05:19:21.331Z,614.00
2024-04-18T05:20:21.340Z,621.00
2024-04-18T05:21:21.374Z,620.00
2024-04-18T05:22:21.343Z,625.00
2024-04-18T05:23:21.346Z,628.00
2024-04-18T05:24:21.385Z,628.00
2024-04-18T05:25:21.350Z,625.00
2024-04-18T05:26:21.821Z,626.00
2024-04-18T05:27:21.436Z,627.00
2024-04-18T05:28:21.434Z,629.00
2024-04-18T05:29:21.357Z,626.00
2024-04-18T05:30:21.371Z,625.00
2024-04-18T05:31:21.815Z,616.00
2024-04-18T05:32:21.390Z,615.00
2024-04-18T05:33:21.436Z,619.00
2024-04-18T05:34:21.384Z,629.00
2024-04-18T05:35:21.367Z,625.00
2024-04-18T05:36:42.404Z,641.00
2024-04-18T05:37:23.160Z,641.00
2024-04-18T05:38:21.379Z,642.00
2024-04-18T05:39:49.373Z,650.00
2024-04-18T05:40:21.407Z,642.00
2024-04-18T05:41:21.821Z,653.00
2024-04-18T05:42:49.388Z,696.00
2024-04-18T05:43:21.397Z,643.00
2024-04-18T05:44:21.383Z,659.00
2024-04-18T05:45:21.425Z,737.00
2024-04-18T05:46:21.386Z,877.00
2024-04-18T05:47:21.476Z,1074.00
2024-04-18T05:48:21.450Z,1211.00
2024-04-18T05:49:21.397Z,1229.00
2024-04-18T05:50:21.398Z,1268.00
2024-04-18T05:51:21.429Z,1279.00
2024-04-18T05:52:21.392Z,1306.00
2024-04-18T05:53:21.410Z,1324.00
2024-04-18T05:54:21.427Z,1315.00
2024-04-18T05:55:21.411Z,1317.00
2024-04-18T05:56:21.431Z,1316.00
2024-04-18T05:57:21.474Z,1311.00
2024-04-18T05:58:21.404Z,1309.00
2024-04-18T05:59:21.448Z,1313.00
2024-04-18T06:00:21.452Z,1318.00
2024-04-18T06:01:26.854Z,1328.00
2024-04-18T06:02:21.563Z,1329.00
2024-04-18T06:03:21.584Z,1331.00
2024-04-18T06:04:36.354Z,1333.00
2024-04-18T06:05:21.583Z,1329.00
2024-04-18T06:06:21.627Z,1333.00
2024-04-18T06:07:46.231Z,1338.00
2024-04-18T06:08:21.587Z,1329.00
2024-04-18T06:09:21.662Z,1336.00
2024-04-18T06:10:21.640Z,1343.00
2024-04-18T06:11:21.613Z,1353.00
2024-04-18T06:12:21.636Z,1358.00
2024-04-18T06:13:21.637Z,1352.00
2024-04-18T06:14:21.587Z,1355.00
2024-04-18T06:15:21.635Z,1360.00
2024-04-18T06:16:21.634Z,1350.00
2024-04-18T06:17:21.597Z,1361.00
2024-04-18T06:18:21.628Z,1381.00
2024-04-18T06:19:21.605Z,1403.00
2024-04-18T06:20:21.604Z,1423.00
2024-04-18T06:21:21.635Z,1433.00
2024-04-18T06:22:21.625Z,1464.00
2024-04-18T06:23:28.296Z,1473.00
2024-04-18T06:24:21.709Z,1474.00
2024-04-18T06:25:21.615Z,1475.00
2024-04-18T06:26:21.621Z,1480.00
2024-04-18T06:27:21.623Z,1486.00
2024-04-18T06:28:21.608Z,1511.00
2024-04-18T06:29:37.812Z,1543.00
2024-04-18T06:30:21.862Z,1475.00
2024-04-18T06:31:22.306Z,1486.00
2024-04-18T06:32:46.342Z,1506.00
2024-04-18T06:33:22.002Z,1475.00
2024-04-18T06:34:21.920Z,1493.00
2024-04-18T06:35:56.199Z,1534.00
2024-04-18T06:36:22.332Z,1475.00
2024-04-18T06:37:21.920Z,1499.00
2024-04-18T06:38:21.929Z,1549.00
2024-04-18T06:39:21.951Z,1627.00
2024-04-18T06:40:21.920Z,1725.00
2024-04-18T06:41:21.929Z,1794.00
2024-04-18T06:42:21.931Z,1773.00
2024-04-18T06:43:24.883Z,1743.00
2024-04-18T06:44:21.931Z,1719.00
2024-04-18T06:45:21.955Z,1687.00
2024-04-18T06:46:22.061Z,1666.00
2024-04-18T06:47:21.970Z,1628.00
2024-04-18T06:48:22.018Z,1598.00
2024-04-18T06:49:21.944Z,1586.00
2024-04-18T06:50:25.301Z,1542.00
2024-04-18T06:51:21.951Z,1535.00
2024-04-18T06:52:21.946Z,1496.00
2024-04-18T06:53:21.944Z,1493.00
2024-04-18T06:54:22.003Z,1463.00
2024-04-18T06:55:21.954Z,1447.00
2024-04-18T06:56:23.245Z,1438.00
2024-04-18T06:57:28.829Z,1441.00
2024-04-18T06:58:21.964Z,1442.00
2024-04-18T06:59:21.964Z,1437.00
2024-04-18T07:00:43.080Z,1440.00
2024-04-18T07:01:22.090Z,1442.00
2024-04-18T07:02:21.966Z,1444.00
2024-04-18T07:03:22.076Z,1450.00
2024-04-18T07:04:22.048Z,1447.00
2024-04-18T07:05:21.980Z,1448.00
2024-04-18T07:06:22.002Z,1401.00
2024-04-18T07:07:21.975Z,1353.00
2024-04-18T07:08:21.974Z,1298.00
2024-04-18T07:09:22.007Z,1248.00
2024-04-18T07:10:21.972Z,1186.00
2024-04-18T07:11:22.045Z,1129.00
2024-04-18T07:12:21.992Z,1087.00
2024-04-18T07:13:21.988Z,1023.00
2024-04-18T07:14:21.972Z,967.00
2024-04-18T07:15:22.003Z,918.00
2024-04-18T07:16:22.031Z,877.00
2024-04-18T07:17:21.980Z,836.00
2024-04-18T07:18:22.094Z,785.00
2024-04-18T07:19:38.340Z,764.00
2024-04-18T07:20:21.988Z,764.00
2024-04-18T07:21:22.021Z,749.00
2024-04-18T07:22:40.330Z,712.00
2024-04-18T07:23:22.003Z,731.00
2024-04-18T07:24:22.019Z,694.00
2024-04-18T07:25:29.398Z,674.00
2024-04-18T07:26:21.993Z,662.00
2024-04-18T07:27:22.022Z,640.00
2024-04-18T07:28:43.008Z,621.00
2024-04-18T07:29:22.004Z,631.00
2024-04-18T07:30:22.036Z,613.00
2024-04-18T07:31:22.020Z,595.00
2024-04-18T07:32:22.070Z,588.00
2024-04-18T07:33:22.193Z,589.00
2024-04-18T07:34:22.151Z,606.00
2024-04-18T07:35:22.011Z,608.00
2024-04-18T07:36:22.031Z,610.00
2024-04-18T07:37:22.009Z,625.00
2024-04-18T07:38:22.008Z,629.00
2024-04-18T07:39:22.118Z,627.00
2024-04-18T07:40:22.016Z,635.00
2024-04-18T07:41:22.022Z,641.00
2024-04-18T07:42:22.045Z,653.00
2024-04-18T07:43:24.872Z,658.00
2024-04-18T07:44:28.837Z,658.00
2024-04-18T07:45:22.037Z,659.00
2024-04-18T07:46:22.023Z,662.00
2024-04-18T07:47:22.066Z,675.00
2024-04-18T07:48:22.143Z,710.00
2024-04-18T07:49:22.094Z,765.00
2024-04-18T07:50:43.042Z,804.00
2024-04-18T07:51:22.079Z,805.00
2024-04-18T07:52:22.177Z,812.00
2024-04-18T07:53:38.358Z,824.00
2024-04-18T07:54:22.091Z,806.00
2024-04-18T07:55:22.836Z,817.00
2024-04-18T07:56:22.472Z,827.00
2024-04-18T07:57:22.526Z,842.00
2024-04-18T07:58:22.421Z,844.00
2024-04-18T07:59:22.647Z,845.00
2024-04-18T08:00:23.083Z,842.00
2024-04-18T08:01:23.597Z,846.00
2024-04-18T08:02:23.847Z,857.00
2024-04-18T08:03:24.260Z,856.00
2024-04-18T08:04:44.609Z,861.00
2024-04-18T08:05:25.419Z,862.00
2024-04-18T08:06:25.127Z,862.00
2024-04-18T08:07:24.722Z,823.00
2024-04-18T08:08:25.447Z,819.00
2024-04-18T08:10:24.812Z,805.00
2024-04-18T08:11:52.995Z,798.00
2024-04-18T08:12:27.857Z,815.00
2024-04-18T08:13:27.419Z,827.00
2024-04-18T08:14:27.487Z,828.00
2024-04-18T08:16:23.551Z,862.00
2024-04-18T08:17:22.661Z,860.00
2024-04-18T08:18:53.839Z,863.00
2024-04-18T08:19:22.474Z,862.00
2024-04-18T08:20:22.463Z,864.00
2024-04-18T08:21:25.866Z,857.00
2024-04-18T08:22:22.501Z,817.00
2024-04-18T08:23:22.468Z,789.00
2024-04-18T08:24:22.520Z,767.00
2024-04-18T08:25:22.471Z,756.00
2024-04-18T08:26:22.485Z,766.00
2024-04-18T08:27:22.489Z,811.00
2024-04-18T08:28:22.515Z,827.00
2024-04-18T08:29:22.488Z,848.00
2024-04-18T08:30:22.523Z,884.00
2024-04-18T08:31:22.509Z,901.00
2024-04-18T08:32:22.498Z,942.00
2024-04-18T08:33:22.536Z,961.00
2024-04-18T08:34:24.295Z,1008.00
2024-04-18T08:35:22.496Z,1048.00
2024-04-18T08:36:22.509Z,1058.00
2024-04-18T08:37:36.872Z,1091.00
2024-04-18T08:38:22.496Z,1093.00
2024-04-18T08:39:22.568Z,1103.00
2024-04-18T08:40:39.936Z,1128.00
2024-04-18T08:41:22.596Z,1095.00
2024-04-18T08:42:22.644Z,1115.00
2024-04-18T08:43:37.357Z,1154.00
2024-04-18T08:44:22.655Z,1097.00
2024-04-18T08:45:22.696Z,1123.00
2024-04-18T08:46:43.912Z,1169.00
2024-04-18T08:47:22.674Z,1096.00
2024-04-18T08:48:22.876Z,1125.00
2024-04-18T08:49:22.768Z,1173.00
2024-04-18T08:50:22.679Z,1246.00
2024-04-18T08:51:22.678Z,1330.00
2024-04-18T08:52:22.653Z,1351.00
2024-04-18T08:53:22.688Z,1345.00
2024-04-18T08:54:22.690Z,1326.00
2024-04-18T08:55:22.664Z,1320.00
2024-04-18T08:56:22.662Z,1306.00
2024-04-18T08:57:22.765Z,1292.00
2024-04-18T08:58:22.660Z,1284.00
2024-04-18T08:59:22.671Z,1270.00
2024-04-18T09:00:22.694Z,1259.00
2024-04-18T09:01:22.668Z,1246.00
2024-04-18T09:02:22.706Z,1239.00
2024-04-18T09:03:22.681Z,1232.00
2024-04-18T09:04:22.790Z,1213.00
2024-04-18T09:05:22.739Z,1191.00
2024-04-18T09:06:22.727Z,1188.00
2024-04-18T09:07:22.669Z,1180.00
2024-04-18T09:08:37.365Z,1181.00
2024-04-18T09:09:22.739Z,1182.00
2024-04-18T09:10:22.674Z,1185.00
2024-04-18T09:11:43.690Z,1190.00
2024-04-18T09:12:22.747Z,1182.00
2024-04-18T09:13:24.262Z,1188.00
2024-04-18T09:14:38.883Z,1183.00
2024-04-18T09:15:22.717Z,1182.00
2024-04-18T09:16:22.695Z,1183.00
2024-04-18T09:17:22.778Z,1130.00
2024-04-18T09:18:22.761Z,1068.00
2024-04-18T09:19:22.773Z,1005.00
2024-04-18T09:20:22.706Z,948.00
2024-04-18T09:21:22.719Z,905.00
2024-04-18T09:22:22.723Z,870.00
2024-04-18T09:23:22.710Z,825.00
2024-04-18T09:24:22.755Z,774.00
2024-04-18T09:25:22.724Z,721.00
2024-04-18T09:26:22.710Z,687.00
2024-04-18T09:27:23.467Z,681.00
2024-04-18T09:28:22.721Z,671.00
2024-04-18T09:29:22.715Z,660.00
2024-04-18T09:30:29.443Z,652.00
2024-04-18T09:31:30.385Z,646.00
2024-04-18T09:32:23.897Z,636.00
2024-04-18T09:33:23.458Z,631.00
2024-04-18T09:34:22.815Z,622.00
2024-04-18T09:35:22.746Z,614.00
2024-04-18T09:36:43.866Z,609.00
2024-04-18T09:37:22.744Z,611.00
2024-04-18T09:38:22.734Z,605.00
2024-04-18T09:39:43.864Z,592.00
2024-04-18T09:40:22.765Z,610.00
2024-04-18T09:41:22.742Z,602.00
2024-04-18T09:42:22.796Z,607.00
2024-04-18T09:43:22.733Z,611.00
2024-04-18T09:44:23.847Z,616.00
2024-04-18T09:45:22.937Z,629.00
2024-04-18T09:46:22.757Z,634.00
2024-04-18T09:47:22.752Z,639.00
2024-04-18T09:48:22.875Z,632.00
2024-04-18T09:49:22.852Z,618.00
2024-04-18T09:50:22.772Z,607.00
2024-04-18T09:51:22.784Z,602.00
2024-04-18T09:52:22.757Z,600.00
2024-04-18T09:53:22.754Z,602.00
2024-04-18T09:54:22.790Z,601.00
2024-04-18T09:55:25.228Z,599.00
2024-04-18T09:56:22.868Z,602.00
2024-04-18T09:57:22.851Z,601.00
2024-04-18T09:58:22.842Z,604.00
2024-04-18T09:59:22.846Z,600.00
2024-04-18T10:00:22.861Z,600.00
2024-04-18T10:01:37.516Z,601.00
2024-04-18T10:02:22.912Z,601.00
2024-04-18T10:03:22.910Z,598.00
2024-04-18T10:04:43.852Z,596.00
2024-04-18T10:05:22.873Z,601.00
2024-04-18T10:06:22.926Z,592.00
2024-04-18T10:07:51.407Z,580.00
2024-04-18T10:08:22.863Z,591.00
2024-04-18T10:09:22.909Z,566.00
2024-04-18T10:10:22.870Z,549.00
2024-04-18T10:11:22.938Z,540.00
2024-04-18T10:12:22.922Z,532.00
2024-04-18T10:13:23.062Z,546.00
2024-04-18T10:14:22.885Z,574.00
2024-04-18T10:15:22.951Z,600.00
2024-04-18T10:16:22.883Z,601.00
2024-04-18T10:17:22.923Z,599.00
2024-04-18T10:18:22.974Z,598.00
2024-04-18T10:19:23.025Z,603.00
2024-04-18T10:20:22.901Z,613.00
2024-04-18T10:21:32.031Z,622.00
2024-04-18T10:22:29.823Z,622.00
2024-04-18T10:23:38.462Z,622.00
2024-04-18T10:24:22.902Z,623.00
2024-04-18T10:25:22.905Z,629.00
2024-04-18T10:26:29.411Z,645.00
2024-04-18T10:27:22.964Z,625.00
2024-04-18T10:28:22.912Z,636.00
2024-04-18T10:29:22.906Z,657.00
2024-04-18T10:30:22.961Z,719.00
2024-04-18T10:31:22.905Z,812.00
2024-04-18T10:32:36.994Z,818.00
2024-04-18T10:33:23.025Z,818.00
2024-04-18T10:34:22.924Z,789.00
2024-04-18T10:35:22.914Z,769.00
2024-04-18T10:36:22.956Z,745.00
2024-04-18T10:37:22.924Z,728.00
2024-04-18T10:38:22.992Z,729.00
2024-04-18T10:39:22.959Z,710.00
2024-04-18T10:40:22.926Z,703.00
2024-04-18T10:41:22.915Z,663.00
2024-04-18T10:42:23.021Z,651.00
2024-04-18T10:43:22.942Z,635.00
2024-04-18T10:44:22.936Z,625.00
2024-04-18T10:45:22.961Z,619.00
2024-04-18T10:46:22.988Z,612.00
2024-04-18T10:47:23.195Z,602.00
2024-04-18T10:48:23.144Z,604.00
2024-04-18T10:49:23.140Z,601.00
2024-04-18T10:50:23.092Z,600.00
2024-04-18T10:51:23.206Z,600.00
2024-04-18T10:52:23.153Z,601.00
2024-04-18T10:53:23.193Z,600.00
2024-04-18T10:54:38.054Z,605.00
2024-04-18T10:55:23.232Z,606.00
2024-04-18T10:56:23.218Z,602.00
2024-04-18T10:57:41.483Z,602.00
2024-04-18T10:58:23.234Z,606.00
2024-04-18T10:59:23.219Z,601.00
2024-04-18T11:00:44.280Z,600.00
2024-04-18T11:01:23.289Z,605.00
2024-04-18T11:02:23.302Z,606.00
2024-04-18T11:03:23.297Z,604.00
2024-04-18T11:04:23.365Z,599.00
2024-04-18T11:05:23.248Z,598.00
2024-04-18T11:06:23.279Z,601.00
2024-04-18T11:07:23.888Z,605.00
2024-04-18T11:08:23.297Z,609.00
2024-04-18T11:09:23.307Z,604.00
2024-04-18T11:10:23.252Z,600.00
2024-04-18T11:11:23.283Z,604.00
2024-04-18T11:12:23.331Z,609.00
2024-04-18T11:13:23.249Z,611.00
2024-04-18T11:14:23.255Z,610.00
2024-04-18T11:15:23.487Z,618.00
2024-04-18T11:16:37.936Z,626.00
2024-04-18T11:17:23.344Z,626.00
2024-04-18T11:18:23.470Z,629.00
2024-04-18T11:19:25.971Z,639.00
2024-04-18T11:20:23.265Z,628.00
2024-04-18T11:21:23.357Z,639.00
2024-04-18T11:22:33.949Z,661.00
2024-04-18T11:23:29.211Z,629.00
2024-04-18T11:24:24.282Z,631.00
2024-04-18T11:25:37.937Z,650.00
2024-04-18T11:26:23.276Z,629.00
2024-04-18T11:27:23.300Z,649.00
2024-04-18T11:28:23.267Z,713.00
2024-04-18T11:29:23.268Z,847.00
2024-04-18T11:30:23.283Z,1032.00
2024-04-18T11:31:23.346Z,1092.00
2024-04-18T11:32:23.418Z,1082.00
2024-04-18T11:33:23.343Z,1053.00
2024-04-18T11:34:23.276Z,1024.00
2024-04-18T11:35:23.278Z,987.00
2024-04-18T11:36:23.305Z,964.00
2024-04-18T11:37:23.298Z,960.00
2024-04-18T11:38:23.293Z,935.00
2024-04-18T11:39:23.318Z,931.00
2024-04-18T11:40:23.294Z,949.00
2024-04-18T11:41:23.291Z,954.00
2024-04-18T11:42:23.321Z,965.00
2024-04-18T11:43:23.293Z,967.00
2024-04-18T11:44:23.295Z,976.00
2024-04-18T11:45:23.368Z,965.00
2024-04-18T11:46:23.320Z,967.00
2024-04-18T11:47:31.072Z,961.00
2024-04-18T11:48:23.422Z,961.00
2024-04-18T11:49:23.320Z,961.00
2024-04-18T11:50:23.319Z,942.00
2024-04-18T11:51:23.348Z,949.00
2024-04-18T11:52:23.309Z,936.00
2024-04-18T11:53:58.948Z,945.00
2024-04-18T11:54:23.601Z,946.00
2024-04-18T11:55:23.630Z,948.00
2024-04-18T11:56:23.664Z,951.00
2024-04-18T11:57:23.755Z,946.00
2024-04-18T11:58:23.737Z,926.00
2024-04-18T11:59:23.797Z,908.00
2024-04-18T12:00:23.815Z,900.00
2024-04-18T12:01:23.802Z,892.00
2024-04-18T12:02:24.622Z,867.00
2024-04-18T12:03:23.868Z,864.00
2024-04-18T12:04:23.944Z,845.00
2024-04-18T12:05:23.867Z,833.00
2024-04-18T12:06:23.909Z,827.00
2024-04-18T12:07:23.895Z,799.00
2024-04-18T12:08:23.907Z,779.00
2024-04-18T12:09:38.577Z,756.00
2024-04-18T12:10:24.155Z,752.00
2024-04-18T12:11:24.183Z,738.00
2024-04-18T12:12:27.484Z,727.00
2024-04-18T12:13:24.181Z,701.00
2024-04-18T12:14:24.181Z,671.00
2024-04-18T12:15:45.261Z,663.00
2024-04-18T12:16:24.208Z,663.00
2024-04-18T12:17:24.189Z,659.00
2024-04-18T12:18:51.959Z,651.00
2024-04-18T12:19:24.194Z,663.00
2024-04-18T12:20:24.213Z,657.00
2024-04-18T12:21:24.208Z,651.00
2024-04-18T12:22:24.191Z,654.00
2024-04-18T12:23:24.204Z,652.00
2024-04-18T12:24:24.307Z,649.00
2024-04-18T12:25:24.194Z,652.00
2024-04-18T12:26:24.252Z,652.00